createdAt,value
2018-04-13T00:00:47.800Z,0
2018-04-13T00:01:47.826Z,0
2018-04-13T00:02:47.078Z,0
2018-04-13T00:03:47.861Z,0
2018-04-13T00:04:48.183Z,0
2018-04-13T00:05:48.169Z,0
2018-04-13T00:06:47.425Z,0
2018-04-13T00:07:47.961Z,0
2018-04-13T00:08:48.240Z,0
2018-04-13T00:09:47.502Z,0
2018-04-13T00:10:47.784Z,0
2018-04-13T00:11:48.047Z,0
2018-04-13T00:12:48.336Z,0
2018-04-13T00:13:48.107Z,0
2018-04-13T00:14:48.180Z,0
2018-04-13T00:15:48.418Z,0
2018-04-13T00:16:48.433Z,0
2018-04-13T00:17:48.202Z,0
2018-04-13T00:18:48.237Z,0
2018-04-13T00:19:48.498Z,0
2018-04-13T00:20:47.776Z,0
2018-04-13T00:21:47.787Z,0
2018-04-13T00:22:48.570Z,0
2018-04-13T00:23:48.597Z,0
2018-04-13T00:24:48.115Z,0
2018-04-13T00:25:48.644Z,0
2018-04-13T00:26:48.413Z,0
2018-04-13T00:27:48.688Z,0
2018-04-13T00:28:48.455Z,0
2018-04-13T00:29:48.808Z,0
2018-04-13T00:30:48.247Z,0
2018-04-13T00:31:48.783Z,0
2018-04-13T00:32:48.813Z,0
2018-04-13T00:33:48.827Z,0
2018-04-13T00:34:48.386Z,0
2018-04-13T00:35:48.615Z,0
2018-04-13T00:36:48.894Z,0
2018-04-13T00:37:48.664Z,0
2018-04-13T00:38:48.679Z,0
2018-04-13T00:39:48.974Z,0
2018-04-13T00:40:48.714Z,0
2018-04-13T00:41:48.737Z,0
2018-04-13T00:42:49.019Z,0
2018-04-13T00:43:49.037Z,0
2018-04-13T00:44:48.820Z,0
2018-04-13T00:45:48.834Z,0
2018-04-13T00:46:49.105Z,0
2018-04-13T00:47:48.630Z,0
2018-04-13T00:48:49.159Z,0
2018-04-13T00:49:48.968Z,0
2018-04-13T00:50:49.190Z,0
2018-04-13T00:51:48.989Z,0
2018-04-13T00:52:49.018Z,0
2018-04-13T00:53:49.042Z,0
2018-04-13T00:54:49.066Z,0
2018-04-13T00:55:49.336Z,0
2018-04-13T00:56:48.856Z,0
2018-04-13T00:57:49.125Z,0
2018-04-13T00:58:49.409Z,0
2018-04-13T00:59:49.426Z,0
2018-04-13T01:00:49.464Z,0
2018-04-13T01:01:49.467Z,0
2018-04-13T01:02:49.488Z,0
2018-04-13T01:03:49.525Z,0
2018-04-13T01:04:49.342Z,0
2018-04-13T01:05:49.321Z,0
2018-04-13T01:06:49.078Z,0
2018-04-13T01:07:49.607Z,0
2018-04-13T01:08:49.919Z,0
2018-04-13T01:09:49.404Z,0
2018-04-13T01:10:49.432Z,0
2018-04-13T01:11:49.443Z,0
2018-04-13T01:12:49.719Z,0
2018-04-13T01:13:49.745Z,0
2018-04-13T01:14:49.503Z,0
2018-04-13T01:15:49.295Z,0
2018-04-13T01:16:49.295Z,0
2018-04-13T01:17:49.574Z,0
2018-04-13T01:18:49.605Z,0
2018-04-13T01:19:49.931Z,0
2018-04-13T01:20:49.659Z,0
2018-04-13T01:21:49.415Z,0
2018-04-13T01:22:49.437Z,0
2018-04-13T01:23:49.970Z,0
2018-04-13T01:24:49.517Z,0
2018-04-13T01:25:49.755Z,0
2018-04-13T01:26:50.030Z,0
2018-04-13T01:27:50.051Z,0
2018-04-13T01:28:50.077Z,0
2018-04-13T01:29:49.848Z,0
2018-04-13T01:30:49.869Z,0
2018-04-13T01:31:49.896Z,0
2018-04-13T01:32:49.913Z,0
2018-04-13T01:33:49.944Z,0
2018-04-13T01:34:49.951Z,0
2018-04-13T01:35:49.992Z,0
2018-04-13T01:36:50.306Z,0
2018-04-13T01:37:50.272Z,0
2018-04-13T01:38:50.052Z,0
2018-04-13T01:39:50.074Z,0
2018-04-13T01:40:49.862Z,0
2018-04-13T01:41:50.367Z,0
2018-04-13T01:42:49.906Z,0
2018-04-13T01:43:50.175Z,0
2018-04-13T01:44:50.429Z,0
2018-04-13T01:45:50.465Z,0
2018-04-13T01:46:50.223Z,0
2018-04-13T01:47:50.496Z,0
2018-04-13T01:48:50.517Z,0
2018-04-13T01:49:50.549Z,0
2018-04-13T01:50:50.561Z,0
2018-04-13T01:51:50.391Z,0
2018-04-13T01:52:50.113Z,0
2018-04-13T01:53:50.632Z,0
2018-04-13T01:54:50.688Z,0
2018-04-13T01:55:50.424Z,0
2018-04-13T01:56:50.700Z,0
2018-04-13T01:57:50.479Z,0
2018-04-13T01:58:50.744Z,0
2018-04-13T01:59:50.518Z,0
2018-04-13T02:00:50.608Z,0
2018-04-13T02:01:50.835Z,0
2018-04-13T02:02:50.595Z,0
2018-04-13T02:03:50.868Z,0
2018-04-13T02:04:50.624Z,0
2018-04-13T02:05:50.649Z,0
2018-04-13T02:06:50.469Z,0
2018-04-13T02:07:50.951Z,0
2018-04-13T02:08:50.978Z,0
2018-04-13T02:09:51.021Z,0
2018-04-13T02:10:50.766Z,0
2018-04-13T02:11:50.531Z,0
2018-04-13T02:12:50.564Z,0
2018-04-13T02:13:50.331Z,0
2018-04-13T02:14:50.857Z,0
2018-04-13T02:15:50.879Z,0
2018-04-13T02:16:50.909Z,0
2018-04-13T02:17:50.923Z,0
2018-04-13T02:18:51.228Z,0
2018-04-13T02:19:51.226Z,0
2018-04-13T02:20:51.265Z,0
2018-04-13T02:21:51.062Z,0
2018-04-13T02:22:51.298Z,0
2018-04-13T02:23:51.315Z,0
2018-04-13T02:24:51.085Z,0
2018-04-13T02:25:50.852Z,0
2018-04-13T02:26:50.867Z,0
2018-04-13T02:27:51.146Z,0
2018-04-13T02:28:50.910Z,0
2018-04-13T02:29:51.180Z,0
2018-04-13T02:30:51.458Z,0
2018-04-13T02:31:51.022Z,0
2018-04-13T02:32:51.524Z,0
2018-04-13T02:33:51.517Z,0
2018-04-13T02:34:50.781Z,0
2018-04-13T02:35:51.561Z,0
2018-04-13T02:36:51.096Z,0
2018-04-13T02:37:51.401Z,0
2018-04-13T02:38:51.629Z,0
2018-04-13T02:39:50.885Z,0
2018-04-13T02:40:51.413Z,0
2018-04-13T02:41:51.183Z,0
2018-04-13T02:42:51.483Z,0
2018-04-13T02:43:51.505Z,0
2018-04-13T02:44:51.523Z,0
2018-04-13T02:45:51.293Z,0
2018-04-13T02:46:51.908Z,0
2018-04-13T02:47:51.852Z,0
2018-04-13T02:48:51.619Z,0
2018-04-13T02:49:51.123Z,0
2018-04-13T02:50:51.912Z,0
2018-04-13T02:51:51.927Z,0
2018-04-13T02:52:51.957Z,0
2018-04-13T02:53:51.718Z,0
2018-04-13T02:54:52.001Z,0
2018-04-13T02:55:52.031Z,0
2018-04-13T02:56:52.049Z,0
2018-04-13T02:57:52.035Z,0
2018-04-13T02:58:51.798Z,0
2018-04-13T02:59:51.574Z,0
2018-04-13T03:00:52.124Z,0
2018-04-13T03:01:51.931Z,0
2018-04-13T03:02:52.139Z,0
2018-04-13T03:03:51.657Z,0
2018-04-13T03:04:51.687Z,0
2018-04-13T03:05:52.209Z,0
2018-04-13T03:06:52.232Z,0
2018-04-13T03:07:52.033Z,0
2018-04-13T03:08:52.301Z,0
2018-04-13T03:09:52.321Z,0
2018-04-13T03:10:52.095Z,0
2018-04-13T03:11:52.379Z,0
2018-04-13T03:12:51.621Z,0
2018-04-13T03:13:52.154Z,0
2018-04-13T03:14:51.674Z,0
2018-04-13T03:15:51.941Z,0
2018-04-13T03:16:52.276Z,0
2018-04-13T03:17:52.241Z,0
2018-04-13T03:18:52.296Z,0
2018-04-13T03:19:52.536Z,0
2018-04-13T03:20:51.799Z,0
2018-04-13T03:21:52.327Z,0
2018-04-13T03:22:52.600Z,0
2018-04-13T03:23:52.640Z,0
2018-04-13T03:24:52.142Z,0
2018-04-13T03:25:52.408Z,0
2018-04-13T03:26:52.435Z,0
2018-04-13T03:27:52.453Z,0
2018-04-13T03:28:52.521Z,0
2018-04-13T03:29:52.509Z,0
2018-04-13T03:30:52.524Z,0
2018-04-13T03:31:52.629Z,0
2018-04-13T03:32:52.819Z,0
2018-04-13T03:33:52.596Z,0
2018-04-13T03:34:52.116Z,0
2018-04-13T03:35:52.640Z,0
2018-04-13T03:36:52.655Z,0
2018-04-13T03:37:52.427Z,0
2018-04-13T03:38:52.693Z,0
2018-04-13T03:39:52.724Z,0
2018-04-13T03:40:52.753Z,0
2018-04-13T03:41:52.782Z,0
2018-04-13T03:42:52.541Z,0
2018-04-13T03:43:52.299Z,0
2018-04-13T03:44:52.830Z,0
2018-04-13T03:45:52.860Z,0
2018-04-13T03:46:53.178Z,0
2018-04-13T03:47:53.151Z,0
2018-04-13T03:48:53.167Z,0
2018-04-13T03:49:53.216Z,0
2018-04-13T03:50:53.218Z,0
2018-04-13T03:51:52.978Z,0
2018-04-13T03:52:52.748Z,0
2018-04-13T03:53:52.766Z,0
2018-04-13T03:54:53.305Z,0
2018-04-13T03:55:52.816Z,0
2018-04-13T03:56:53.400Z,0
2018-04-13T03:57:52.851Z,0
2018-04-13T03:58:53.402Z,0
2018-04-13T03:59:52.888Z,0
2018-04-13T04:00:53.173Z,0
2018-04-13T04:01:53.496Z,0
2018-04-13T04:02:52.965Z,0
2018-04-13T04:03:53.285Z,0
2018-04-13T04:04:53.017Z,0
2018-04-13T04:05:53.279Z,0
2018-04-13T04:06:53.303Z,0
2018-04-13T04:07:53.575Z,0
2018-04-13T04:08:53.597Z,0
2018-04-13T04:09:53.366Z,0
2018-04-13T04:10:53.396Z,0
2018-04-13T04:11:53.412Z,0
2018-04-13T04:12:53.435Z,0
2018-04-13T04:13:53.704Z,0
2018-04-13T04:14:53.468Z,0
2018-04-13T04:15:53.239Z,0
2018-04-13T04:16:53.567Z,0
2018-04-13T04:17:53.799Z,0
2018-04-13T04:18:53.302Z,0
2018-04-13T04:19:53.822Z,0
2018-04-13T04:20:53.844Z,0
2018-04-13T04:21:53.371Z,0
2018-04-13T04:22:53.127Z,0
2018-04-13T04:23:53.909Z,0
2018-04-13T04:24:53.178Z,0
2018-04-13T04:25:53.954Z,0
2018-04-13T04:26:53.792Z,0
2018-04-13T04:27:53.770Z,0
2018-04-13T04:28:54.038Z,0
2018-04-13T04:29:53.799Z,0
2018-04-13T04:30:54.074Z,0
2018-04-13T04:31:53.848Z,0
2018-04-13T04:32:53.599Z,0
2018-04-13T04:33:54.135Z,5
2018-04-13T04:34:54.167Z,5
2018-04-13T04:35:53.672Z,5
2018-04-13T04:36:53.948Z,5
2018-04-13T04:37:53.981Z,5
2018-04-13T04:38:54.245Z,5
2018-04-13T04:39:53.758Z,5
2018-04-13T04:40:54.048Z,10
2018-04-13T04:41:54.363Z,10
2018-04-13T04:42:53.822Z,10
2018-04-13T04:43:53.852Z,10
2018-04-13T04:44:54.374Z,10
2018-04-13T04:45:54.412Z,15
2018-04-13T04:46:54.478Z,15
2018-04-13T04:47:54.444Z,15
2018-04-13T04:48:54.207Z,15
2018-04-13T04:49:54.489Z,20
2018-04-13T04:50:54.512Z,20
2018-04-13T04:51:54.272Z,20
2018-04-13T04:52:54.037Z,20
2018-04-13T04:53:54.060Z,25
2018-04-13T04:54:54.582Z,25
2018-04-13T04:55:54.357Z,25
2018-04-13T04:56:54.625Z,30
2018-04-13T04:57:54.401Z,30
2018-04-13T04:58:53.956Z,30
2018-04-13T04:59:54.192Z,30
2018-04-13T05:00:54.456Z,35
2018-04-13T05:01:54.492Z,35
2018-04-13T05:02:54.501Z,35
2018-04-13T05:03:54.368Z,35
2018-04-13T05:04:54.302Z,35
2018-04-13T05:05:54.832Z,35
2018-04-13T05:06:54.849Z,35
2018-04-13T05:07:54.882Z,40
2018-04-13T05:08:54.919Z,40
2018-04-13T05:09:54.910Z,40
2018-04-13T05:10:54.682Z,40
2018-04-13T05:11:54.791Z,40
2018-04-13T05:12:54.988Z,40
2018-04-13T05:13:55.049Z,45
2018-04-13T05:14:55.021Z,45
2018-04-13T05:15:54.531Z,45
2018-04-13T05:16:55.055Z,45
2018-04-13T05:17:55.069Z,50
2018-04-13T05:18:55.111Z,50
2018-04-13T05:19:55.130Z,50
2018-04-13T05:20:55.147Z,50
2018-04-13T05:21:54.921Z,50
2018-04-13T05:22:55.188Z,50
2018-04-13T05:23:55.223Z,55
2018-04-13T05:24:54.747Z,55
2018-04-13T05:25:55.265Z,55
2018-04-13T05:26:55.024Z,55
2018-04-13T05:27:55.049Z,60
2018-04-13T05:28:55.401Z,60
2018-04-13T05:29:54.832Z,65
2018-04-13T05:30:55.359Z,65
2018-04-13T05:31:54.615Z,65
2018-04-13T05:32:54.895Z,65
2018-04-13T05:33:55.191Z,65
2018-04-13T05:34:55.445Z,65
2018-04-13T05:35:55.469Z,65
2018-04-13T05:36:55.489Z,70
2018-04-13T05:37:55.509Z,70
2018-04-13T05:38:55.275Z,70
2018-04-13T05:39:55.299Z,75
2018-04-13T05:40:55.568Z,75
2018-04-13T05:41:55.339Z,75
2018-04-13T05:42:55.615Z,75
2018-04-13T05:43:55.688Z,80
2018-04-13T05:44:55.394Z,80
2018-04-13T05:45:55.669Z,85
2018-04-13T05:46:55.440Z,80
2018-04-13T05:47:55.709Z,85
2018-04-13T05:48:55.741Z,85
2018-04-13T05:49:55.496Z,90
2018-04-13T05:50:55.814Z,90
2018-04-13T05:51:55.539Z,90
2018-04-13T05:52:55.822Z,90
2018-04-13T05:53:55.885Z,95
2018-04-13T05:54:55.860Z,105
2018-04-13T05:55:55.879Z,120
2018-04-13T05:56:55.648Z,120
2018-04-13T05:57:55.157Z,115
2018-04-13T05:58:55.995Z,120
2018-04-13T05:59:55.979Z,130
2018-04-13T06:00:55.727Z,135
2018-04-13T06:01:55.497Z,135
2018-04-13T06:02:56.023Z,125
2018-04-13T06:03:56.048Z,135
2018-04-13T06:04:56.066Z,145
2018-04-13T06:05:56.088Z,145
2018-04-13T06:06:56.116Z,150
2018-04-13T06:07:55.896Z,150
2018-04-13T06:08:56.142Z,150
2018-04-13T06:09:55.919Z,155
2018-04-13T06:10:55.687Z,155
2018-04-13T06:11:56.220Z,155
2018-04-13T06:12:56.208Z,155
2018-04-13T06:13:56.036Z,160
2018-04-13T06:14:56.258Z,160
2018-04-13T06:15:56.272Z,165
2018-04-13T06:16:55.785Z,165
2018-04-13T06:17:55.811Z,165
2018-04-13T06:18:56.537Z,170
2018-04-13T06:19:55.870Z,170
2018-04-13T06:20:56.401Z,170
2018-04-13T06:21:56.165Z,175
2018-04-13T06:22:56.455Z,175
2018-04-13T06:23:56.469Z,175
2018-04-13T06:24:56.499Z,175
2018-04-13T06:25:56.510Z,180
2018-04-13T06:26:56.281Z,180
2018-04-13T06:27:56.311Z,185
2018-04-13T06:28:56.623Z,185
2018-04-13T06:29:56.617Z,185
2018-04-13T06:30:56.371Z,185
2018-04-13T06:31:56.633Z,195
2018-04-13T06:32:56.650Z,190
2018-04-13T06:33:56.690Z,190
2018-04-13T06:34:56.467Z,190
2018-04-13T06:35:56.755Z,190
2018-04-13T06:36:59.896Z,190
2018-04-13T06:37:56.493Z,190
2018-04-13T06:38:56.520Z,190
2018-04-13T06:39:56.791Z,190
2018-04-13T06:40:56.562Z,190
2018-04-13T06:41:56.835Z,190
2018-04-13T06:42:56.607Z,195
2018-04-13T06:43:56.686Z,195
2018-04-13T06:44:56.670Z,200
2018-04-13T06:45:56.944Z,200
2018-04-13T06:46:56.712Z,200
2018-04-13T06:47:56.985Z,205
2018-04-13T06:48:57.149Z,205
2018-04-13T06:49:57.025Z,205
2018-04-13T06:50:57.047Z,205
2018-04-13T06:51:56.812Z,205
2018-04-13T06:52:56.849Z,205
2018-04-13T06:53:56.863Z,205
2018-04-13T06:54:56.882Z,205
2018-04-13T06:55:56.901Z,205
2018-04-13T06:56:57.232Z,205
2018-04-13T06:57:56.958Z,205
2018-04-13T06:58:57.274Z,205
2018-04-13T06:59:56.220Z,205
2018-04-13T07:00:56.504Z,210
2018-04-13T07:01:57.340Z,210
2018-04-13T07:02:57.372Z,210
2018-04-13T07:03:57.330Z,210
2018-04-13T07:04:56.847Z,210
2018-04-13T07:05:57.128Z,215
2018-04-13T07:06:57.405Z,215
2018-04-13T07:07:56.981Z,215
2018-04-13T07:08:56.685Z,215
2018-04-13T07:09:57.218Z,220
2018-04-13T07:10:57.237Z,220
2018-04-13T07:11:57.513Z,225
2018-04-13T07:12:57.533Z,225
2018-04-13T07:13:57.609Z,230
2018-04-13T07:14:57.329Z,230
2018-04-13T07:15:57.098Z,230
2018-04-13T07:16:57.637Z,230
2018-04-13T07:17:57.651Z,230
2018-04-13T07:18:57.672Z,230
2018-04-13T07:19:57.696Z,235
2018-04-13T07:20:57.491Z,235
2018-04-13T07:21:57.736Z,240
2018-04-13T07:22:57.252Z,240
2018-04-13T07:23:58.835Z,240
2018-04-13T07:24:57.354Z,245
2018-04-13T07:25:57.576Z,250
2018-04-13T07:26:57.598Z,255
2018-04-13T07:27:57.610Z,250
2018-04-13T07:28:57.945Z,255
2018-04-13T07:29:57.924Z,265
2018-04-13T07:30:57.695Z,275
2018-04-13T07:31:58.830Z,290
2018-04-13T07:32:57.995Z,280
2018-04-13T07:33:57.944Z,295
2018-04-13T07:34:57.791Z,330
2018-04-13T07:35:58.095Z,345
2018-04-13T07:36:57.829Z,255
2018-04-13T07:37:57.857Z,270
2018-04-13T07:38:57.982Z,280
2018-04-13T07:39:57.892Z,280
2018-04-13T07:40:57.912Z,280
2018-04-13T07:41:58.198Z,285
2018-04-13T07:42:58.267Z,280
2018-04-13T07:43:57.978Z,280
2018-04-13T07:44:58.793Z,285
2018-04-13T07:45:58.024Z,275
2018-04-13T07:46:58.327Z,240
2018-04-13T07:47:58.335Z,235
2018-04-13T07:48:57.895Z,245
2018-04-13T07:49:59.570Z,275
2018-04-13T07:50:59.393Z,280
2018-04-13T07:51:57.654Z,240
2018-04-13T07:52:57.943Z,240
2018-04-13T07:53:57.955Z,245
2018-04-13T07:54:57.976Z,245
2018-04-13T07:55:58.255Z,245
2018-04-13T07:56:57.787Z,250
2018-04-13T07:57:58.059Z,255
2018-04-13T07:58:57.818Z,285
2018-04-13T07:59:58.261Z,270
2018-04-13T08:00:58.752Z,300
2018-04-13T08:01:59.041Z,285
2018-04-13T08:02:58.240Z,255
2018-04-13T08:03:59.225Z,240
2018-04-13T08:04:58.466Z,240
2018-04-13T08:05:58.741Z,240
2018-04-13T08:06:58.006Z,245
2018-04-13T08:07:58.041Z,250
2018-04-13T08:08:58.567Z,260
2018-04-13T08:09:58.579Z,265
2018-04-13T08:10:58.611Z,275
2018-04-13T08:11:58.379Z,280
2018-04-13T08:12:59.452Z,285
2018-04-13T08:13:59.477Z,280
2018-04-13T08:14:58.708Z,285
2018-04-13T08:15:59.153Z,285
2018-04-13T08:16:59.006Z,295
2018-04-13T08:17:59.137Z,305
2018-04-13T08:18:58.599Z,300
2018-04-13T08:19:59.079Z,305
2018-04-13T08:20:58.851Z,310
2018-04-13T08:21:59.105Z,315
2018-04-13T08:22:58.393Z,320
2018-04-13T08:23:58.911Z,320
2018-04-13T08:24:58.924Z,315
2018-04-13T08:25:58.955Z,310
2018-04-13T08:26:59.229Z,305
2018-04-13T08:27:58.747Z,295
2018-04-13T08:28:58.846Z,295
2018-04-13T08:29:58.888Z,360
2018-04-13T08:30:59.155Z,390
2018-04-13T08:31:59.202Z,355
2018-04-13T08:32:59.183Z,280
2018-04-13T08:33:59.201Z,275
2018-04-13T08:34:58.963Z,270
2018-04-13T08:35:59.218Z,275
2018-04-13T08:36:59.266Z,270
2018-04-13T08:37:59.595Z,265
2018-04-13T08:38:59.048Z,275
2018-04-13T08:39:59.636Z,285
2018-04-13T08:40:59.339Z,300
2018-04-13T08:41:59.418Z,310
2018-04-13T08:42:59.302Z,325
2018-04-13T08:43:59.389Z,335
2018-04-13T08:44:59.408Z,345
2018-04-13T08:45:59.434Z,350
2018-04-13T08:46:59.221Z,350
2018-04-13T08:47:59.504Z,350
2018-04-13T08:49:00.232Z,350
2018-04-13T08:49:59.888Z,350
2018-04-13T08:50:59.614Z,350
2018-04-13T08:51:59.922Z,350
2018-04-13T08:52:59.961Z,365
2018-04-13T08:53:59.763Z,360
2018-04-13T08:54:59.712Z,370
2018-04-13T08:55:59.735Z,340
2018-04-13T08:56:59.650Z,330
2018-04-13T08:57:59.554Z,330
2018-04-13T08:59:00.033Z,325
2018-04-13T08:59:59.798Z,325
2018-04-13T09:00:59.639Z,330
2018-04-13T09:02:00.100Z,335
2018-04-13T09:02:59.614Z,330
2018-04-13T09:03:59.950Z,330
2018-04-13T09:05:00.165Z,335
2018-04-13T09:06:00.190Z,340
2018-04-13T09:06:59.727Z,345
2018-04-13T09:07:59.230Z,350
2018-04-13T09:09:00.018Z,360
2018-04-13T09:10:00.043Z,375
2018-04-13T09:10:59.869Z,380
2018-04-13T09:11:59.839Z,415
2018-04-13T09:12:59.903Z,415
2018-04-13T09:14:00.263Z,430
2018-04-13T09:15:00.414Z,470
2018-04-13T09:15:59.947Z,475
2018-04-13T09:17:00.473Z,480
2018-04-13T09:17:59.767Z,560
2018-04-13T09:19:00.319Z,740
2018-04-13T09:20:00.037Z,610
2018-04-13T09:21:00.453Z,770
2018-04-13T09:22:00.591Z,510
2018-04-13T09:23:00.367Z,545
2018-04-13T09:23:59.891Z,505
2018-04-13T09:25:00.664Z,500
2018-04-13T09:26:00.197Z,515
2018-04-13T09:27:00.447Z,480
2018-04-13T09:28:00.899Z,500
2018-04-13T09:29:00.505Z,535
2018-04-13T09:30:00.780Z,515
2018-04-13T09:31:00.578Z,520
2018-04-13T09:32:00.342Z,515
2018-04-13T09:33:00.359Z,505
2018-04-13T09:34:00.652Z,560
2018-04-13T09:35:00.415Z,495
2018-04-13T09:36:00.513Z,510
2018-04-13T09:37:00.723Z,510
2018-04-13T09:38:00.494Z,495
2018-04-13T09:39:01.089Z,515
2018-04-13T09:40:01.077Z,500
2018-04-13T09:41:01.081Z,485
2018-04-13T09:42:00.605Z,455
2018-04-13T09:43:00.383Z,430
2018-04-13T09:44:01.273Z,410
2018-04-13T09:45:01.180Z,395
2018-04-13T09:46:00.448Z,395
2018-04-13T09:47:00.983Z,380
2018-04-13T09:48:00.754Z,370
2018-04-13T09:49:01.030Z,375
2018-04-13T09:50:01.089Z,365
2018-04-13T09:51:01.343Z,365
2018-04-13T09:52:01.116Z,365
2018-04-13T09:53:00.898Z,365
2018-04-13T09:54:01.475Z,370
2018-04-13T09:55:01.480Z,375
2018-04-13T09:56:00.972Z,375
2018-04-13T09:57:01.502Z,385
2018-04-13T09:58:01.027Z,400
2018-04-13T09:59:01.549Z,415
2018-04-13T10:00:01.318Z,425
2018-04-13T10:01:01.374Z,435
2018-04-13T10:02:01.418Z,455
2018-04-13T10:03:01.153Z,470
2018-04-13T10:04:01.172Z,510
2018-04-13T10:05:01.714Z,515
2018-04-13T10:06:01.731Z,610
2018-04-13T10:07:01.249Z,550
2018-04-13T10:08:01.859Z,665
2018-04-13T10:09:01.348Z,790
2018-04-13T10:10:01.577Z,670
2018-04-13T10:11:01.602Z,570
2018-04-13T10:12:01.626Z,610
2018-04-13T10:13:01.403Z,565
2018-04-13T10:14:01.944Z,590
2018-04-13T10:15:01.457Z,575
2018-04-13T10:16:01.501Z,635
2018-04-13T10:17:02.022Z,555
2018-04-13T10:18:01.786Z,525
2018-04-13T10:19:01.813Z,555
2018-04-13T10:20:01.851Z,685
2018-04-13T10:21:01.877Z,680
2018-04-13T10:22:01.896Z,685
2018-04-13T10:23:02.176Z,650
2018-04-13T10:24:02.001Z,680
2018-04-13T10:25:02.235Z,690
2018-04-13T10:26:01.751Z,675
2018-04-13T10:27:02.131Z,680
2018-04-13T10:28:02.064Z,700
2018-04-13T10:29:02.091Z,705
2018-04-13T10:30:02.120Z,715
2018-04-13T10:31:01.888Z,665
2018-04-13T10:32:01.961Z,655
2018-04-13T10:33:02.427Z,680
2018-04-13T10:34:02.452Z,620
2018-04-13T10:35:02.491Z,720
2018-04-13T10:36:02.541Z,805
2018-04-13T10:37:01.823Z,470
2018-04-13T10:38:02.443Z,800
2018-04-13T10:39:01.921Z,795
2018-04-13T10:40:02.413Z,810
2018-04-13T10:41:02.699Z,825
2018-04-13T10:42:02.459Z,735
2018-04-13T10:43:02.241Z,795
2018-04-13T10:44:02.781Z,540
2018-04-13T10:45:02.304Z,595
2018-04-13T10:46:02.830Z,750
2018-04-13T10:47:02.609Z,695
2018-04-13T10:48:02.891Z,585
2018-04-13T10:49:02.919Z,685
2018-04-13T10:50:02.709Z,545
2018-04-13T10:51:02.743Z,655
2018-04-13T10:52:03.031Z,440
2018-04-13T10:53:03.045Z,405
2018-04-13T10:54:02.621Z,390
2018-04-13T10:55:03.114Z,390
2018-04-13T10:56:02.608Z,395
2018-04-13T10:57:02.451Z,405
2018-04-13T10:58:02.690Z,755
2018-04-13T10:59:03.277Z,795
2018-04-13T11:00:03.013Z,835
2018-04-13T11:01:03.294Z,885
2018-04-13T11:02:03.065Z,865
2018-04-13T11:03:03.349Z,845
2018-04-13T11:04:03.373Z,500
2018-04-13T11:05:03.154Z,435
2018-04-13T11:06:03.439Z,415
2018-04-13T11:07:02.960Z,385
2018-04-13T11:08:03.249Z,390
2018-04-13T11:09:03.547Z,410
2018-04-13T11:10:03.319Z,430
2018-04-13T11:11:03.595Z,550
2018-04-13T11:12:03.367Z,500
2018-04-13T11:13:03.651Z,430
2018-04-13T11:14:02.962Z,365
2018-04-13T11:15:03.457Z,390
2018-04-13T11:16:03.477Z,425
2018-04-13T11:17:03.548Z,450
2018-04-13T11:18:03.796Z,965
2018-04-13T11:19:03.309Z,455
2018-04-13T11:20:03.589Z,460
2018-04-13T11:21:03.364Z,430
2018-04-13T11:22:03.651Z,380
2018-04-13T11:23:03.933Z,335
2018-04-13T11:24:03.711Z,310
2018-04-13T11:25:03.796Z,295
2018-04-13T11:26:03.758Z,300
2018-04-13T11:27:04.045Z,300
2018-04-13T11:28:04.085Z,295
2018-04-13T11:29:03.911Z,290
2018-04-13T11:30:04.131Z,280
2018-04-13T11:31:03.905Z,280
2018-04-13T11:32:03.682Z,260
2018-04-13T11:33:03.959Z,245
2018-04-13T11:34:03.742Z,235
2018-04-13T11:35:04.271Z,230
2018-04-13T11:36:03.792Z,235
2018-04-13T11:37:04.080Z,245
2018-04-13T11:38:03.840Z,255
2018-04-13T11:39:03.676Z,275
2018-04-13T11:40:03.651Z,315
2018-04-13T11:41:04.179Z,355
2018-04-13T11:42:04.207Z,395
2018-04-13T11:43:03.978Z,450
2018-04-13T11:44:04.307Z,500
2018-04-13T11:45:04.292Z,1200
2018-04-13T11:46:04.573Z,1230
2018-04-13T11:47:04.333Z,1235
2018-04-13T11:48:04.629Z,1140
2018-04-13T11:49:04.393Z,520
2018-04-13T11:50:04.434Z,1040
2018-04-13T11:51:04.715Z,1175
2018-04-13T11:52:04.476Z,470
2018-04-13T11:53:04.525Z,325
2018-04-13T11:54:04.327Z,315
2018-04-13T11:55:04.818Z,310
2018-04-13T11:56:04.336Z,295
2018-04-13T11:57:04.873Z,290
2018-04-13T11:58:04.643Z,280
2018-04-13T11:59:04.175Z,255
2018-04-13T12:00:04.444Z,250
2018-04-13T12:01:04.733Z,240
2018-04-13T12:02:05.011Z,225
2018-04-13T12:03:04.519Z,225
2018-04-13T12:04:04.829Z,225
2018-04-13T12:05:05.096Z,225
2018-04-13T12:06:05.126Z,225
2018-04-13T12:07:04.647Z,230
2018-04-13T12:08:04.676Z,245
2018-04-13T12:09:05.001Z,270
2018-04-13T12:10:04.980Z,300
2018-04-13T12:11:04.483Z,315
2018-04-13T12:12:05.272Z,305
2018-04-13T12:13:05.058Z,300
2018-04-13T12:14:05.074Z,300
2018-04-13T12:15:04.619Z,295
2018-04-13T12:16:05.124Z,295
2018-04-13T12:17:05.164Z,290
2018-04-13T12:18:05.180Z,290
2018-04-13T12:19:05.465Z,290
2018-04-13T12:20:04.724Z,290
2018-04-13T12:21:05.535Z,290
2018-04-13T12:22:05.045Z,290
2018-04-13T12:23:05.312Z,290
2018-04-13T12:24:05.141Z,290
2018-04-13T12:25:05.619Z,290
2018-04-13T12:26:05.684Z,290
2018-04-13T12:27:05.671Z,290
2018-04-13T12:28:05.708Z,295
2018-04-13T12:29:05.464Z,300
2018-04-13T12:30:05.513Z,300
2018-04-13T12:31:05.243Z,305
2018-04-13T12:32:05.838Z,310
2018-04-13T12:33:05.307Z,320
2018-04-13T12:34:05.336Z,325
2018-04-13T12:35:05.872Z,330
2018-04-13T12:36:05.644Z,340
2018-04-13T12:37:05.679Z,350
2018-04-13T12:38:05.483Z,365
2018-04-13T12:39:05.776Z,375
2018-04-13T12:40:05.735Z,390
2018-04-13T12:41:05.514Z,405
2018-04-13T12:42:06.043Z,415
2018-04-13T12:43:05.817Z,425
2018-04-13T12:44:05.585Z,440
2018-04-13T12:45:06.143Z,465
2018-04-13T12:46:05.896Z,510
2018-04-13T12:47:05.672Z,535
2018-04-13T12:48:05.945Z,500
2018-04-13T12:49:06.137Z,565
2018-04-13T12:50:06.408Z,555
2018-04-13T12:51:06.031Z,615
2018-04-13T12:52:06.287Z,640
2018-04-13T12:53:05.901Z,650
2018-04-13T12:54:06.701Z,670
2018-04-13T12:55:07.015Z,665
2018-04-13T12:56:06.317Z,690
2018-04-13T12:57:06.402Z,770
2018-04-13T12:58:06.198Z,880
2018-04-13T12:59:06.526Z,1040
2018-04-13T13:00:06.512Z,720
2018-04-13T13:01:05.768Z,615
2018-04-13T13:02:06.047Z,575
2018-04-13T13:03:06.330Z,855
2018-04-13T13:04:06.624Z,655
2018-04-13T13:05:06.383Z,660
2018-04-13T13:06:06.414Z,1105
2018-04-13T13:07:06.688Z,1190
2018-04-13T13:08:06.720Z,705
2018-04-13T13:09:06.594Z,980
2018-04-13T13:10:06.513Z,1320
2018-04-13T13:11:06.033Z,1370
2018-04-13T13:12:06.070Z,1535
2018-04-13T13:13:06.608Z,1725
2018-04-13T13:14:06.634Z,1810
2018-04-13T13:15:06.649Z,1855
2018-04-13T13:16:06.731Z,2060
2018-04-13T13:17:06.711Z,2235
2018-04-13T13:18:06.732Z,2240
2018-04-13T13:19:06.258Z,2250
2018-04-13T13:20:06.542Z,2420
2018-04-13T13:21:06.572Z,2580
2018-04-13T13:22:06.085Z,2635
2018-04-13T13:23:06.885Z,2715
2018-04-13T13:24:07.224Z,2780
2018-04-13T13:25:06.681Z,2865
2018-04-13T13:26:07.219Z,2850
2018-04-13T13:27:07.241Z,2850
2018-04-13T13:28:07.277Z,2810
2018-04-13T13:29:07.377Z,2640
2018-04-13T13:30:06.850Z,2830
2018-04-13T13:31:07.377Z,2960
2018-04-13T13:32:07.154Z,2875
2018-04-13T13:33:06.931Z,3060
2018-04-13T13:34:06.968Z,3065
2018-04-13T13:35:07.239Z,2990
2018-04-13T13:36:07.270Z,2920
2018-04-13T13:37:07.319Z,3115
2018-04-13T13:38:07.335Z,3290
2018-04-13T13:39:07.674Z,3030
2018-04-13T13:40:06.900Z,2805
2018-04-13T13:41:07.199Z,2705
2018-04-13T13:42:07.721Z,1090
2018-04-13T13:43:07.254Z,785
2018-04-13T13:44:07.788Z,2670
2018-04-13T13:45:07.572Z,1860
2018-04-13T13:46:07.605Z,1935
2018-04-13T13:47:07.663Z,1835
2018-04-13T13:48:07.955Z,1550
2018-04-13T13:49:07.991Z,1810
2018-04-13T13:50:07.763Z,2220
2018-04-13T13:51:08.051Z,2575
2018-04-13T13:52:08.076Z,2375
2018-04-13T13:53:08.115Z,1760
2018-04-13T13:54:07.889Z,2075
2018-04-13T13:55:07.675Z,2745
2018-04-13T13:56:07.938Z,2455
2018-04-13T13:57:07.976Z,2930
2018-04-13T13:58:08.002Z,3100
2018-04-13T13:59:07.834Z,545
2018-04-13T14:00:08.084Z,495
2018-04-13T14:01:08.114Z,555
2018-04-13T14:02:08.165Z,1090
2018-04-13T14:03:08.199Z,2800
2018-04-13T14:04:07.804Z,2705
2018-04-13T14:05:08.255Z,2750
2018-04-13T14:06:07.783Z,2640